createdAt,value
2022-10-06T00:01:23.279Z,15.93
2022-10-06T00:03:58.498Z,15.07
2022-10-06T00:06:33.504Z,17.57
2022-10-06T00:09:08.792Z,19.50
2022-10-06T00:11:47.244Z,18.27
2022-10-06T00:14:24.051Z,18.27
2022-10-06T00:17:02.486Z,17.43
2022-10-06T00:19:38.443Z,17.33
2022-10-06T00:22:18.539Z,13.93
2022-10-06T00:24:53.610Z,16.80
2022-10-06T00:27:30.966Z,14.67
2022-10-06T00:30:07.002Z,16.83
2022-10-06T00:32:43.035Z,14.63
2022-10-06T00:35:18.365Z,24.23
2022-10-06T00:37:55.662Z,16.33
2022-10-06T00:40:30.880Z,14.73
2022-10-06T00:43:10.203Z,14.93
2022-10-06T00:45:51.779Z,14.87
2022-10-06T00:48:30.824Z,17.83
2022-10-06T00:51:07.870Z,18.70
2022-10-06T00:53:45.530Z,17.50
2022-10-06T00:56:22.562Z,16.00
2022-10-06T00:59:02.537Z,19.57
2022-10-06T01:01:40.097Z,17.97
2022-10-06T01:04:19.701Z,16.87
2022-10-06T01:07:02.962Z,17.83
2022-10-06T01:09:42.930Z,14.10
2022-10-06T01:12:23.686Z,22.37
2022-10-06T01:15:07.015Z,23.47
2022-10-06T01:17:52.187Z,19.27
2022-10-06T01:20:28.387Z,20.87
2022-10-06T01:23:12.489Z,23.57
2022-10-06T01:25:48.959Z,14.63
2022-10-06T01:28:25.505Z,18.77
2022-10-06T01:31:05.862Z,16.47
2022-10-06T01:33:43.171Z,18.60
2022-10-06T01:36:21.273Z,17.63
2022-10-06T01:39:02.693Z,17.93
2022-10-06T01:41:40.425Z,18.53
2022-10-06T01:44:19.298Z,18.87
2022-10-06T01:46:59.622Z,16.17
2022-10-06T01:49:35.816Z,15.37
2022-10-06T01:52:16.452Z,22.73
2022-10-06T01:54:58.123Z,18.60
2022-10-06T01:57:33.759Z,20.80
2022-10-06T02:00:12.070Z,20.83
2022-10-06T02:02:54.764Z,21.30
2022-10-06T02:05:30.613Z,20.40
2022-10-06T02:08:08.001Z,25.17
2022-10-06T02:10:51.615Z,24.73
2022-10-06T02:13:35.957Z,24.23
2022-10-06T02:16:15.920Z,20.97
2022-10-06T02:18:54.061Z,21.23
2022-10-06T02:21:32.045Z,23.10
2022-10-06T02:24:13.263Z,20.83
2022-10-06T02:26:51.891Z,19.43
2022-10-06T02:29:34.494Z,23.63
2022-10-06T02:32:14.698Z,23.53
2022-10-06T02:34:57.009Z,24.53
2022-10-06T02:37:39.610Z,23.87
2022-10-06T02:40:20.603Z,19.67
2022-10-06T02:43:16.820Z,25.37
2022-10-06T02:46:00.950Z,22.67
2022-10-06T02:48:41.260Z,24.50
2022-10-06T02:51:20.981Z,21.00
2022-10-06T02:54:00.259Z,23.13
2022-10-06T02:56:39.730Z,23.37
2022-10-06T02:59:18.672Z,24.97
2022-10-06T03:01:56.527Z,24.17
2022-10-06T03:04:40.588Z,26.00
2022-10-06T03:07:25.375Z,30.43
2022-10-06T03:10:11.811Z,26.97
2022-10-06T03:12:49.789Z,29.47
2022-10-06T03:15:32.987Z,31.37
2022-10-06T03:18:14.628Z,27.20
2022-10-06T03:20:53.089Z,27.43
2022-10-06T03:23:30.979Z,27.23
2022-10-06T03:26:10.867Z,27.50
2022-10-06T03:28:56.460Z,31.77
2022-10-06T03:31:36.888Z,26.80
2022-10-06T03:34:17.640Z,27.90
2022-10-06T03:36:56.709Z,27.87
2022-10-06T03:39:35.691Z,27.97
2022-10-06T03:42:14.540Z,27.90
2022-10-06T03:44:55.530Z,27.93
2022-10-06T03:47:43.012Z,26.47
2022-10-06T03:50:21.836Z,29.47
2022-10-06T03:53:02.906Z,29.77
2022-10-06T03:55:47.654Z,27.47
2022-10-06T03:58:27.871Z,25.17
2022-10-06T04:01:10.128Z,26.23
2022-10-06T04:03:49.381Z,28.13
2022-10-06T04:06:33.126Z,32.63
2022-10-06T04:09:15.977Z,31.33
2022-10-06T04:12:12.026Z,32.70
2022-10-06T04:15:04.249Z,33.90
2022-10-06T04:17:46.276Z,34.27
2022-10-06T04:20:31.243Z,30.47
2022-10-06T04:23:23.944Z,37.47
2022-10-06T04:26:08.198Z,30.83
2022-10-06T04:28:58.150Z,37.90
2022-10-06T04:31:54.838Z,34.97
2022-10-06T04:34:46.886Z,42.47
2022-10-06T04:37:35.988Z,40.63
2022-10-06T04:40:27.657Z,36.20
2022-10-06T04:43:09.384Z,38.70
2022-10-06T04:45:48.231Z,35.70
2022-10-06T04:48:27.622Z,40.47
2022-10-06T04:51:19.048Z,36.57
2022-10-06T04:54:16.714Z,42.13
2022-10-06T04:57:04.648Z,37.40
2022-10-06T05:00:05.960Z,40.57
2022-10-06T05:02:50.941Z,43.43
2022-10-06T05:05:29.192Z,37.87
2022-10-06T05:08:08.477Z,37.07
2022-10-06T05:10:59.148Z,36.07
2022-10-06T05:13:42.492Z,39.27
2022-10-06T05:16:22.540Z,39.83
2022-10-06T05:19:02.251Z,40.83
2022-10-06T05:21:40.062Z,38.00
2022-10-06T05:24:27.245Z,34.90
2022-10-06T05:27:24.255Z,39.60
2022-10-06T05:30:08.350Z,39.90
2022-10-06T05:32:45.921Z,40.50
2022-10-06T05:35:26.649Z,39.40
2022-10-06T05:38:03.694Z,41.40
2022-10-06T05:41:01.285Z,41.07
2022-10-06T05:43:58.627Z,38.13
2022-10-06T05:46:46.843Z,35.10
2022-10-06T05:49:30.637Z,37.90
2022-10-06T05:52:17.595Z,35.27
2022-10-06T05:55:01.035Z,36.37
2022-10-06T05:57:51.162Z,38.00
2022-10-06T06:00:44.024Z,33.57
2022-10-06T06:03:31.293Z,38.83
2022-10-06T06:06:26.622Z,41.30
2022-10-06T06:09:20.148Z,42.80
2022-10-06T06:12:03.809Z,35.67
2022-10-06T06:15:20.740Z,38.30
2022-10-06T06:18:07.644Z,41.30
2022-10-06T06:20:49.205Z,40.93
2022-10-06T06:23:27.068Z,39.57
2022-10-06T06:26:09.852Z,38.70
2022-10-06T06:28:54.568Z,48.40
2022-10-06T06:31:44.618Z,48.47
2022-10-06T06:34:30.558Z,48.60
2022-10-06T06:37:15.068Z,47.30
2022-10-06T06:39:56.424Z,45.27
2022-10-06T06:42:40.170Z,39.07
2022-10-06T06:45:31.174Z,44.73
2022-10-06T06:48:47.370Z,42.93
2022-10-06T06:51:34.989Z,40.50
2022-10-06T06:54:18.103Z,42.57
2022-10-06T06:57:07.462Z,46.33
2022-10-06T06:59:44.550Z,40.57
2022-10-06T07:02:30.699Z,45.10
2022-10-06T07:05:13.204Z,43.73
2022-10-06T07:08:17.278Z,47.50
2022-10-06T07:10:54.363Z,38.83
2022-10-06T07:13:30.713Z,42.63
2022-10-06T07:16:27.507Z,43.03
2022-10-06T07:19:25.053Z,43.23
2022-10-06T07:22:20.312Z,49.53
2022-10-06T07:25:13.021Z,45.00
2022-10-06T07:27:55.853Z,41.73
2022-10-06T07:30:41.943Z,44.13
2022-10-06T07:33:33.788Z,43.03
2022-10-06T07:36:18.211Z,45.17
2022-10-06T07:39:04.864Z,42.77
2022-10-06T07:41:57.961Z,42.37
2022-10-06T07:44:34.176Z,40.60
2022-10-06T07:47:18.253Z,42.70
2022-10-06T07:50:03.628Z,46.63
2022-10-06T07:52:48.374Z,50.27
2022-10-06T07:55:27.825Z,44.90
2022-10-06T07:58:31.840Z,48.37
2022-10-06T08:01:14.046Z,36.60
2022-10-06T08:03:52.717Z,42.70
2022-10-06T08:06:36.018Z,46.17
2022-10-06T08:09:18.879Z,39.57
2022-10-06T08:12:04.097Z,42.30
2022-10-06T08:15:05.966Z,46.40
2022-10-06T08:17:44.986Z,34.80
2022-10-06T08:20:21.126Z,41.47
2022-10-06T08:23:04.629Z,39.07
2022-10-06T08:25:50.467Z,36.53
2022-10-06T08:28:31.921Z,35.50
2022-10-06T08:31:36.239Z,40.23
2022-10-06T08:34:27.183Z,38.60
2022-10-06T08:37:19.920Z,41.13
2022-10-06T08:40:01.737Z,40.87
2022-10-06T08:42:45.036Z,42.77
2022-10-06T08:45:27.158Z,43.87
2022-10-06T08:48:09.603Z,35.77
2022-10-06T08:51:08.503Z,43.53
2022-10-06T08:53:49.541Z,40.00
2022-10-06T08:56:41.377Z,43.13
2022-10-06T08:59:24.933Z,45.70
2022-10-06T09:02:09.947Z,47.07
2022-10-06T09:04:57.855Z,42.30
2022-10-06T09:07:49.769Z,43.33
2022-10-06T09:10:46.473Z,42.47
2022-10-06T09:13:29.942Z,39.13
2022-10-06T09:16:12.149Z,48.73
2022-10-06T09:19:08.276Z,48.90
2022-10-06T09:21:57.244Z,49.83
2022-10-06T09:24:47.399Z,45.43
2022-10-06T09:27:40.635Z,45.17
2022-10-06T09:30:19.553Z,45.97
2022-10-06T09:33:04.378Z,45.30
2022-10-06T09:36:07.565Z,44.37
2022-10-06T09:39:28.349Z,41.93
2022-10-06T09:42:08.311Z,43.73
2022-10-06T09:45:03.203Z,50.20
2022-10-06T09:47:46.215Z,53.80
2022-10-06T09:50:32.697Z,47.23
2022-10-06T09:53:23.266Z,48.17
2022-10-06T09:56:20.128Z,51.87
2022-10-06T09:59:15.628Z,52.77
2022-10-06T10:02:06.712Z,48.37
2022-10-06T10:04:51.513Z,50.23
2022-10-06T10:07:33.253Z,51.27
2022-10-06T10:10:27.857Z,53.47
2022-10-06T10:13:09.576Z,51.17
2022-10-06T10:15:59.937Z,51.80
2022-10-06T10:18:40.872Z,56.43
2022-10-06T10:21:31.147Z,57.90
2022-10-06T10:24:12.760Z,57.43
2022-10-06T10:26:56.186Z,57.80
2022-10-06T10:29:52.460Z,58.07
2022-10-06T10:32:42.486Z,55.10
2022-10-06T10:35:30.924Z,61.23
2022-10-06T10:38:14.728Z,67.50
2022-10-06T10:40:58.762Z,65.20
2022-10-06T10:43:41.445Z,61.03
2022-10-06T10:46:45.237Z,53.97
2022-10-06T10:49:31.743Z,55.77
2022-10-06T10:52:17.689Z,55.40
2022-10-06T10:54:59.236Z,62.20
2022-10-06T10:57:43.442Z,59.20
2022-10-06T11:00:38.273Z,55.77
2022-10-06T11:03:22.061Z,59.03
2022-10-06T11:06:30.938Z,56.27
2022-10-06T11:09:12.500Z,63.03
2022-10-06T11:12:23.976Z,57.00
2022-10-06T11:15:09.567Z,58.87
2022-10-06T11:17:52.263Z,54.70
2022-10-06T11:20:55.522Z,59.00
2022-10-06T11:23:50.478Z,59.67
2022-10-06T11:26:41.107Z,58.47
2022-10-06T11:29:35.407Z,57.57
2022-10-06T11:32:30.200Z,58.93
2022-10-06T11:35:21.527Z,57.10
2022-10-06T11:38:07.563Z,62.37
2022-10-06T11:41:09.842Z,57.20
2022-10-06T11:43:57.062Z,61.07
2022-10-06T11:46:53.161Z,62.67
2022-10-06T11:50:01.755Z,66.17
2022-10-06T11:52:54.074Z,60.03
2022-10-06T11:55:41.480Z,63.47
2022-10-06T11:58:41.378Z,60.30
2022-10-06T12:02:01.096Z,65.40
2022-10-06T12:04:45.080Z,62.67
2022-10-06T12:07:28.653Z,59.17
2022-10-06T12:10:52.944Z,66.80
2022-10-06T12:14:26.645Z,67.87
2022-10-06T12:20:08.579Z,62.13
2022-10-06T12:22:52.978Z,60.60
2022-10-06T12:25:46.598Z,62.40
2022-10-06T12:28:38.395Z,62.00
2022-10-06T12:31:50.939Z,61.77
2022-10-06T12:34:49.520Z,62.53
2022-10-06T12:37:55.154Z,54.97
2022-10-06T12:40:53.416Z,63.00
2022-10-06T12:44:14.942Z,60.60
2022-10-06T12:46:58.879Z,60.37
2022-10-06T12:49:53.624Z,52.87
2022-10-06T12:53:08.656Z,60.10
2022-10-06T12:55:52.680Z,59.17
2022-10-06T12:58:41.243Z,57.03
2022-10-06T13:01:27.256Z,59.40
2022-10-06T13:04:34.006Z,59.73
2022-10-06T13:07:30.756Z,61.20
2022-10-06T13:10:35.426Z,58.73
2022-10-06T13:13:31.263Z,59.50
2022-10-06T13:16:20.926Z,58.87
2022-10-06T13:19:03.755Z,58.83
2022-10-06T13:21:41.129Z,61.13
2022-10-06T13:24:28.683Z,61.37
2022-10-06T13:27:24.654Z,60.70
2022-10-06T13:30:27.517Z,61.13
2022-10-06T13:33:06.010Z,57.53
2022-10-06T13:35:43.359Z,59.40
2022-10-06T13:38:27.169Z,64.17
2022-10-06T13:41:40.589Z,61.27
2022-10-06T13:44:46.966Z,62.10
2022-10-06T13:47:28.636Z,64.43
2022-10-06T13:50:18.861Z,69.43
2022-10-06T13:53:05.686Z,64.17
2022-10-06T13:55:49.640Z,68.63
2022-10-06T13:58:39.823Z,58.77
2022-10-06T14:01:18.157Z,67.30
2022-10-06T14:04:18.648Z,63.03
2022-10-06T14:07:06.917Z,61.60
2022-10-06T14:09:57.206Z,63.63
2022-10-06T14:12:38.491Z,61.00
2022-10-06T14:15:27.441Z,59.30
2022-10-06T14:18:17.375Z,55.70
2022-10-06T14:20:54.637Z,49.13
2022-10-06T14:23:46.213Z,55.60
2022-10-06T14:26:23.787Z,51.13
2022-10-06T14:29:16.031Z,49.03
2022-10-06T14:32:27.818Z,47.87
2022-10-06T14:35:21.512Z,44.53
2022-10-06T14:38:08.328Z,41.80
2022-10-06T14:40:50.087Z,45.00
2022-10-06T14:43:55.948Z,43.03
2022-10-06T14:46:36.055Z,43.13
2022-10-06T14:49:14.555Z,42.00
2022-10-06T14:52:08.788Z,38.33
2022-10-06T14:54:44.043Z,40.77
2022-10-06T14:57:27.680Z,42.97
2022-10-06T15:00:06.044Z,42.43
2022-10-06T15:02:42.616Z,41.50
2022-10-06T15:05:21.411Z,37.73
2022-10-06T15:08:14.493Z,38.63
2022-10-06T15:11:26.114Z,42.67
2022-10-06T15:14:08.365Z,40.67
2022-10-06T15:16:49.600Z,44.03
2022-10-06T15:19:27.135Z,43.07
2022-10-06T15:22:15.191Z,39.20
2022-10-06T15:25:04.849Z,40.00
2022-10-06T15:27:58.663Z,40.53
2022-10-06T15:30:46.730Z,40.37
2022-10-06T15:33:28.229Z,37.70
2022-10-06T15:36:23.005Z,40.20
2022-10-06T15:39:01.339Z,43.30
2022-10-06T15:41:50.210Z,37.93
2022-10-06T15:44:37.279Z,40.63
2022-10-06T15:47:39.684Z,41.47
2022-10-06T15:50:19.230Z,42.00
2022-10-06T15:52:58.681Z,41.07
2022-10-06T15:55:37.062Z,41.03
2022-10-06T15:58:28.231Z,39.90
2022-10-06T16:01:04.887Z,38.40
2022-10-06T16:03:52.252Z,42.10
2022-10-06T16:06:42.016Z,37.83
2022-10-06T16:09:25.077Z,37.90
2022-10-06T16:12:03.970Z,33.43
2022-10-06T16:14:45.219Z,32.00
2022-10-06T16:17:25.358Z,29.47
2022-10-06T16:20:12.896Z,29.00
2022-10-06T16:22:51.323Z,26.50
2022-10-06T16:25:29.449Z,23.70
2022-10-06T16:28:06.316Z,22.33
2022-10-06T16:30:48.906Z,24.03
2022-10-06T16:33:30.989Z,23.47
2022-10-06T16:36:14.484Z,22.40
2022-10-06T16:39:02.247Z,23.67
2022-10-06T16:41:52.535Z,21.23
2022-10-06T16:44:28.576Z,23.20
2022-10-06T16:47:21.064Z,21.17
2022-10-06T16:49:59.143Z,20.87
2022-10-06T16:52:41.805Z,24.97
2022-10-06T16:55:23.485Z,30.70
2022-10-06T16:58:00.835Z,23.30
2022-10-06T17:00:43.923Z,20.70
2022-10-06T17:03:28.536Z,18.90
2022-10-06T17:06:12.911Z,19.60
2022-10-06T17:08:58.073Z,19.27
2022-10-06T17:11:39.198Z,19.50
2022-10-06T17:14:18.952Z,20.50
2022-10-06T17:16:57.350Z,21.73
2022-10-06T17:19:37.936Z,19.97
2022-10-06T17:22:15.530Z,21.20
2022-10-06T17:24:55.123Z,19.97
2022-10-06T17:27:37.174Z,20.37
2022-10-06T17:30:19.049Z,23.07
2022-10-06T17:32:55.008Z,19.43
2022-10-06T17:35:36.784Z,21.47
2022-10-06T17:38:29.229Z,24.67
2022-10-06T17:41:08.558Z,20.07
2022-10-06T17:43:45.814Z,19.17
2022-10-06T17:46:24.358Z,19.70
2022-10-06T17:49:01.690Z,21.03
2022-10-06T17:51:44.323Z,23.47
2022-10-06T17:54:27.479Z,21.37
2022-10-06T17:57:05.057Z,19.47
2022-10-06T17:59:42.319Z,18.70
2022-10-06T18:02:23.378Z,18.80
2022-10-06T18:04:59.395Z,17.87
2022-10-06T18:07:40.105Z,17.60
2022-10-06T18:10:31.004Z,18.37
2022-10-06T18:13:05.751Z,17.33
2022-10-06T18:15:42.592Z,21.73
2022-10-06T18:18:17.760Z,19.90
2022-10-06T18:20:51.946Z,19.13
2022-10-06T18:23:28.581Z,16.23
2022-10-06T18:26:07.758Z,16.23
2022-10-06T18:28:42.447Z,16.30
2022-10-06T18:31:20.119Z,20.13
2022-10-06T18:36:51.211Z,17.80
2022-10-06T18:39:27.664Z,17.83
2022-10-06T18:42:04.208Z,16.87
2022-10-06T18:45:05.549Z,19.10
2022-10-06T18:47:55.229Z,19.27
2022-10-06T18:50:29.862Z,14.70
2022-10-06T18:53:05.401Z,16.40
2022-10-06T18:55:41.488Z,17.97
2022-10-06T18:58:15.452Z,16.77
2022-10-06T19:00:50.050Z,17.07
2022-10-06T19:03:24.422Z,16.30
2022-10-06T19:05:59.947Z,16.43
2022-10-06T19:08:34.267Z,18.63
2022-10-06T19:11:26.609Z,16.23
2022-10-06T19:14:01.247Z,17.37
2022-10-06T19:16:35.540Z,17.23
2022-10-06T19:19:12.351Z,19.13
2022-10-06T19:21:50.182Z,18.63
2022-10-06T19:24:25.791Z,19.17
2022-10-06T19:27:02.255Z,16.90
2022-10-06T19:29:38.725Z,19.13
2022-10-06T19:32:12.846Z,20.30
2022-10-06T19:34:48.158Z,20.20
2022-10-06T19:37:22.595Z,20.40
2022-10-06T19:39:56.925Z,22.47
2022-10-06T19:42:48.586Z,22.87
2022-10-06T19:45:23.331Z,21.60
2022-10-06T19:47:58.966Z,21.27
2022-10-06T19:50:33.650Z,23.13
2022-10-06T19:53:08.194Z,21.77
2022-10-06T19:55:42.142Z,22.73
2022-10-06T19:58:18.089Z,22.63
2022-10-06T20:00:51.988Z,20.27
2022-10-06T20:03:25.953Z,23.10
2022-10-06T20:06:00.841Z,20.37
2022-10-06T20:08:35.754Z,20.03
2022-10-06T20:11:11.343Z,25.07
2022-10-06T20:13:48.471Z,23.73
2022-10-06T20:16:24.642Z,19.80
2022-10-06T20:18:58.445Z,21.00
2022-10-06T20:21:35.246Z,22.67
2022-10-06T20:24:10.687Z,23.63
2022-10-06T20:26:48.725Z,21.37
2022-10-06T20:29:26.653Z,19.87
2022-10-06T20:32:01.933Z,20.77
2022-10-06T20:34:38.317Z,22.40
2022-10-06T20:37:12.696Z,23.77
2022-10-06T20:40:02.623Z,19.73
2022-10-06T20:42:37.040Z,23.33
2022-10-06T20:45:14.498Z,21.13
2022-10-06T20:47:49.101Z,21.50
2022-10-06T20:50:23.492Z,22.87
2022-10-06T20:52:58.919Z,22.47
2022-10-06T20:55:33.202Z,23.60
2022-10-06T20:58:06.588Z,24.43
2022-10-06T21:00:42.485Z,27.00
2022-10-06T21:03:16.461Z,22.23
2022-10-06T21:05:54.503Z,24.87
2022-10-06T21:08:28.486Z,24.20
2022-10-06T21:11:03.406Z,24.27
2022-10-06T21:13:37.052Z,23.53
2022-10-06T21:16:14.129Z,23.37
2022-10-06T21:18:48.777Z,23.83
2022-10-06T21:21:22.811Z,22.57
2022-10-06T21:23:57.114Z,22.17
2022-10-06T21:26:31.886Z,24.80
2022-10-06T21:29:06.340Z,21.33
2022-10-06T21:31:42.376Z,18.57
2022-10-06T21:34:17.706Z,17.77
2022-10-06T21:36:51.449Z,19.53
2022-10-06T21:39:26.199Z,16.37
2022-10-06T21:42:00.657Z,16.63
2022-10-06T21:44:34.198Z,16.30
2022-10-06T21:47:09.936Z,13.90
2022-10-06T21:49:43.988Z,13.77
2022-10-06T21:52:18.067Z,12.90
2022-10-06T21:54:52.812Z,11.77
2022-10-06T21:57:26.992Z,11.23
2022-10-06T22:00:04.040Z,12.63
2022-10-06T22:02:48.591Z,11.47
2022-10-06T22:05:22.043Z,11.37
2022-10-06T22:07:55.916Z,11.50
2022-10-06T22:10:29.496Z,12.27
2022-10-06T22:13:04.023Z,11.47
2022-10-06T22:15:41.263Z,11.13
2022-10-06T22:18:17.507Z,11.87
2022-10-06T22:20:51.654Z,10.50
2022-10-06T22:23:26.215Z,13.03
2022-10-06T22:26:00.954Z,11.97
2022-10-06T22:28:35.015Z,14.60
2022-10-06T22:31:10.320Z,12.47
2022-10-06T22:33:47.147Z,12.57
2022-10-06T22:36:20.443Z,12.87
2022-10-06T22:38:54.844Z,14.90
2022-10-06T22:41:29.845Z,18.87
2022-10-06T22:44:04.053Z,20.50
2022-10-06T22:46:38.968Z,17.33
2022-10-06T22:49:14.843Z,18.23
2022-10-06T22:51:48.807Z,19.00
2022-10-06T22:54:27.221Z,18.73
2022-10-06T22:57:01.576Z,18.23
2022-10-06T22:59:35.043Z,21.73
2022-10-06T23:02:09.497Z,18.87
2022-10-06T23:04:45.572Z,20.70
2022-10-06T23:07:19.535Z,21.37
2022-10-06T23:09:53.224Z,26.13
2022-10-06T23:12:27.570Z,21.83
2022-10-06T23:15:01.338Z,23.27
2022-10-06T23:17:35.139Z,24.73
2022-10-06T23:20:11.303Z,25.80
2022-10-06T23:22:45.527Z,26.57
2022-10-06T23:25:22.565Z,26.67
2022-10-06T23:27:59.701Z,23.30
2022-10-06T23:30:34.081Z,25.13
2022-10-06T23:33:08.364Z,24.97
2022-10-06T23:35:44.820Z,27.30
2022-10-06T23:38:18.854Z,24.80
2022-10-06T23:40:53.509Z,23.67
2022-10-06T23:43:28.727Z,28.13
2022-10-06T23:46:03.089Z,30.27
2022-10-06T23:48:37.300Z,25.97
2022-10-06T23:51:15.267Z,27.50
2022-10-06T23:53:50.119Z,29.57
2022-10-06T23:56:24.123Z,22.93
2022-10-06T23:58:58.577Z,26.00
